createdAt,value
2019-04-11T00:01:03.882Z,24.17
2019-04-11T00:03:35.525Z,27.67
2019-04-11T00:06:07.424Z,22.50
2019-04-11T00:08:38.582Z,22.60
2019-04-11T00:11:09.465Z,23.80
2019-04-11T00:13:41.127Z,20.20
2019-04-11T00:16:12.995Z,22.03
2019-04-11T00:18:44.994Z,24.10
2019-04-11T00:21:37.842Z,23.33
2019-04-11T00:24:08.168Z,25.73
2019-04-11T00:26:38.681Z,21.43
2019-04-11T00:29:10.149Z,20.93
2019-04-11T00:31:41.125Z,21.83
2019-04-11T00:34:12.984Z,24.30
2019-04-11T00:36:44.281Z,26.53
2019-04-11T00:39:16.253Z,22.13
2019-04-11T00:41:46.799Z,24.40
2019-04-11T00:44:17.253Z,21.97
2019-04-11T00:46:48.873Z,20.53
2019-04-11T00:49:19.404Z,25.60
2019-04-11T00:51:50.344Z,21.43
2019-04-11T00:54:21.161Z,22.07
2019-04-11T00:56:52.653Z,23.10
2019-04-11T00:59:23.128Z,24.63
2019-04-11T01:01:54.982Z,23.77
2019-04-11T01:04:25.596Z,22.47
2019-04-11T01:06:57.131Z,22.07
2019-04-11T01:09:28.448Z,20.70
2019-04-11T01:12:22.686Z,20.33
2019-04-11T01:14:53.454Z,20.50
2019-04-11T01:17:25.295Z,28.37
2019-04-11T01:19:57.283Z,19.90
2019-04-11T01:22:27.822Z,22.60
2019-04-11T01:24:59.632Z,24.30
2019-04-11T01:27:32.056Z,25.00
2019-04-11T01:30:02.718Z,22.70
2019-04-11T01:32:34.696Z,26.07
2019-04-11T01:35:06.817Z,24.50
2019-04-11T01:37:38.242Z,20.37
2019-04-11T01:40:09.916Z,21.97
2019-04-11T01:42:41.673Z,31.93
2019-04-11T01:45:13.616Z,23.27
2019-04-11T01:48:09.153Z,26.20
2019-04-11T01:50:41.177Z,23.40
2019-04-11T01:53:13.034Z,21.07
2019-04-11T01:55:43.449Z,26.83
2019-04-11T01:58:14.263Z,21.17
2019-04-11T02:01:06.623Z,21.87
2019-04-11T02:03:45.600Z,24.10
2019-04-11T02:06:18.025Z,17.13
2019-04-11T02:08:49.334Z,22.07
2019-04-11T02:11:21.258Z,20.30
2019-04-11T02:13:53.354Z,22.83
2019-04-11T02:16:25.145Z,24.10
2019-04-11T02:18:56.176Z,20.10
2019-04-11T02:21:27.447Z,21.50
2019-04-11T02:24:20.029Z,22.47
2019-04-11T02:27:15.310Z,28.67
2019-04-11T02:29:46.758Z,29.93
2019-04-11T02:32:18.537Z,30.17
2019-04-11T02:34:50.662Z,28.77
2019-04-11T02:37:24.083Z,34.87
2019-04-11T02:39:55.952Z,42.33
2019-04-11T02:42:27.685Z,34.97
2019-04-11T02:45:13.483Z,29.40
2019-04-11T02:47:32.860Z,29.23
2019-04-11T02:50:03.843Z,24.70
2019-04-11T02:52:37.804Z,23.67
2019-04-11T02:55:10.638Z,19.63
2019-04-11T02:57:42.695Z,19.83
2019-04-11T03:00:15.712Z,22.40
2019-04-11T03:02:47.900Z,21.33
2019-04-11T03:05:20.745Z,20.17
2019-04-11T03:07:51.561Z,22.33
2019-04-11T03:10:24.850Z,20.50
2019-04-11T03:12:56.735Z,17.27
2019-04-11T03:15:46.741Z,16.43
2019-04-11T03:18:04.444Z,17.20
2019-04-11T03:20:40.879Z,21.90
2019-04-11T03:23:09.882Z,18.00
2019-04-11T03:25:40.604Z,20.97
2019-04-11T03:28:16.732Z,19.57
2019-04-11T03:31:03.880Z,20.93
2019-04-11T03:34:01.734Z,20.27
2019-04-11T03:37:01.161Z,17.63
2019-04-11T03:38:42.637Z,18.67
2019-04-11T03:41:12.042Z,20.20
2019-04-11T03:43:37.677Z,19.90
2019-04-11T03:46:20.160Z,23.13
2019-04-11T03:48:42.154Z,18.33
2019-04-11T03:51:04.819Z,20.20
2019-04-11T03:53:37.161Z,16.87
2019-04-11T03:56:09.650Z,20.73
2019-04-11T03:58:41.785Z,19.70
2019-04-11T04:01:13.993Z,20.57
2019-04-11T04:03:46.682Z,27.30
2019-04-11T04:06:18.986Z,19.63
2019-04-11T04:08:50.806Z,23.43
2019-04-11T04:11:27.500Z,21.00
2019-04-11T04:14:08.205Z,23.73
2019-04-11T04:16:59.288Z,21.77
2019-04-11T04:19:54.252Z,21.73
2019-04-11T04:22:35.479Z,22.90
2019-04-11T04:25:08.300Z,21.27
2019-04-11T04:27:40.881Z,25.97
2019-04-11T04:30:13.742Z,21.53
2019-04-11T04:32:45.162Z,22.60
2019-04-11T04:35:19.779Z,22.80
2019-04-11T04:37:51.517Z,18.77
2019-04-11T04:40:35.571Z,20.20
2019-04-11T04:42:56.229Z,21.27
2019-04-11T04:45:27.661Z,27.13
2019-04-11T04:48:03.256Z,22.50
2019-04-11T04:50:30.940Z,23.23
2019-04-11T04:53:02.750Z,25.13
2019-04-11T04:55:34.820Z,21.37
2019-04-11T04:58:07.215Z,19.63
2019-04-11T05:00:39.692Z,19.47
2019-04-11T05:03:10.448Z,23.47
2019-04-11T05:05:42.549Z,20.70
2019-04-11T05:08:14.573Z,18.10
2019-04-11T05:10:45.081Z,19.07
2019-04-11T05:13:17.163Z,17.33
2019-04-11T05:15:49.090Z,25.70
2019-04-11T05:18:20.769Z,21.90
2019-04-11T05:20:52.789Z,20.23
2019-04-11T05:23:23.555Z,19.07
2019-04-11T05:25:55.030Z,20.23
2019-04-11T05:28:25.577Z,19.87
2019-04-11T05:30:56.023Z,20.50
2019-04-11T05:33:27.386Z,17.77
2019-04-11T05:35:58.578Z,17.67
2019-04-11T05:38:29.377Z,23.07
2019-04-11T05:41:00.131Z,19.43
2019-04-11T05:43:36.608Z,16.47
2019-04-11T05:46:10.156Z,17.37
2019-04-11T05:48:57.989Z,20.40
2019-04-11T05:51:36.999Z,22.23
2019-04-11T05:54:05.942Z,20.13
2019-04-11T05:56:33.433Z,18.53
2019-04-11T05:59:15.115Z,20.23
2019-04-11T06:01:54.880Z,19.60
2019-04-11T06:04:46.884Z,20.27
2019-04-11T06:07:35.017Z,20.57
2019-04-11T06:10:12.833Z,16.27
2019-04-11T06:13:00.739Z,16.73
2019-04-11T06:15:38.765Z,15.10
2019-04-11T06:18:25.218Z,18.00
2019-04-11T06:20:48.660Z,17.10
2019-04-11T06:23:35.851Z,14.73
2019-04-11T06:26:18.869Z,19.90
2019-04-11T06:28:53.687Z,16.90
2019-04-11T06:31:40.810Z,22.20
2019-04-11T06:34:11.420Z,20.80
2019-04-11T06:37:01.381Z,24.17
2019-04-11T06:39:59.673Z,15.33
2019-04-11T06:42:45.522Z,14.07
2019-04-11T06:45:48.047Z,18.93
2019-04-11T06:48:40.023Z,20.53
2019-04-11T06:51:14.156Z,11.53
2019-04-11T06:54:02.468Z,14.47
2019-04-11T06:56:45.483Z,14.97
2019-04-11T06:59:20.510Z,15.67
2019-04-11T07:01:51.146Z,17.23
2019-04-11T07:04:35.713Z,13.83
2019-04-11T07:07:09.552Z,11.50
2019-04-11T07:09:49.597Z,11.57
2019-04-11T07:12:33.281Z,11.60
2019-04-11T07:15:18.762Z,16.90
2019-04-11T07:18:07.577Z,14.97
2019-04-11T07:21:02.998Z,10.50
2019-04-11T07:23:51.590Z,10.23
2019-04-11T07:26:43.895Z,12.53
2019-04-11T07:29:33.782Z,9.97
2019-04-11T07:32:13.564Z,10.63
2019-04-11T07:35:21.508Z,9.10
2019-04-11T07:37:55.375Z,10.70
2019-04-11T07:40:47.537Z,10.33
2019-04-11T07:43:33.596Z,11.47
2019-04-11T07:46:24.576Z,11.83
2019-04-11T07:49:08.018Z,8.67
2019-04-11T07:51:52.720Z,10.20
2019-04-11T07:54:25.794Z,12.73
2019-04-11T07:57:04.827Z,11.37
2019-04-11T07:59:53.643Z,14.97
2019-04-11T08:02:41.939Z,9.17
2019-04-11T08:05:30.520Z,9.97
2019-04-11T08:08:35.228Z,9.67
2019-04-11T08:11:31.719Z,9.87
2019-04-11T08:14:14.123Z,9.53
2019-04-11T08:17:27.023Z,8.17
2019-04-11T08:20:06.117Z,6.37
2019-04-11T08:22:43.187Z,8.67
2019-04-11T08:25:33.487Z,7.77
2019-04-11T08:28:07.905Z,6.30
2019-04-11T08:30:57.534Z,6.30
2019-04-11T08:33:29.166Z,29.70
2019-04-11T08:36:22.015Z,14.60
2019-04-11T08:38:53.610Z,7.90
2019-04-11T08:41:47.479Z,6.50
2019-04-11T08:44:21.893Z,13.20
2019-04-11T08:46:58.051Z,8.50
2019-04-11T08:49:35.420Z,9.13
2019-04-11T08:52:11.817Z,13.43
2019-04-11T08:55:02.171Z,6.60
2019-04-11T08:57:36.168Z,7.33
2019-04-11T09:00:31.268Z,8.53
2019-04-11T09:03:07.310Z,11.00
2019-04-11T09:05:49.299Z,7.23
2019-04-11T09:08:38.452Z,7.67
2019-04-11T09:11:22.797Z,6.63
2019-04-11T09:14:11.583Z,9.37
2019-04-11T09:17:04.268Z,6.83
2019-04-11T09:19:47.331Z,10.07
2019-04-11T09:22:31.079Z,9.70
2019-04-11T09:25:21.140Z,7.70
2019-04-11T09:28:11.262Z,6.00
2019-04-11T09:31:01.282Z,15.60
2019-04-11T09:33:57.570Z,8.80
2019-04-11T09:36:56.043Z,8.43
2019-04-11T09:39:41.374Z,9.67
2019-04-11T09:42:40.155Z,12.43
2019-04-11T09:45:35.394Z,5.60
2019-04-11T09:48:44.396Z,6.93
2019-04-11T09:51:38.087Z,6.93
2019-04-11T09:54:23.982Z,4.33
2019-04-11T09:57:20.598Z,5.43
2019-04-11T10:00:14.369Z,5.97
2019-04-11T10:03:04.062Z,8.03
2019-04-11T10:06:05.420Z,6.33
2019-04-11T10:08:41.634Z,6.70
2019-04-11T10:11:30.445Z,10.27
2019-04-11T10:14:05.283Z,6.53
2019-04-11T10:16:53.365Z,8.40
2019-04-11T10:19:40.114Z,7.67
2019-04-11T10:22:48.268Z,13.40
2019-04-11T10:25:23.462Z,9.50
2019-04-11T10:28:31.329Z,11.03
2019-04-11T10:31:12.954Z,7.47
2019-04-11T10:34:06.688Z,9.37
2019-04-11T10:36:41.145Z,9.63
2019-04-11T10:39:33.939Z,17.10
2019-04-11T10:42:08.508Z,15.23
2019-04-11T10:45:07.493Z,8.53
2019-04-11T10:47:38.764Z,7.43
2019-04-11T10:50:17.805Z,9.00
2019-04-11T10:52:52.902Z,5.70
2019-04-11T10:55:29.394Z,9.90
2019-04-11T10:58:05.119Z,6.70
2019-04-11T11:00:53.629Z,6.70
2019-04-11T11:03:36.076Z,8.80
2019-04-11T11:06:07.248Z,5.67
2019-04-11T11:08:45.931Z,6.83
2019-04-11T11:11:21.942Z,10.47
2019-04-11T11:14:24.773Z,14.30
2019-04-11T11:17:05.186Z,13.00
2019-04-11T11:20:03.533Z,7.17
2019-04-11T11:22:51.750Z,9.50
2019-04-11T11:25:48.484Z,5.60
2019-04-11T11:28:18.983Z,5.20
2019-04-11T11:31:18.043Z,6.03
2019-04-11T11:33:49.017Z,16.07
2019-04-11T11:36:45.718Z,7.30
2019-04-11T11:39:37.386Z,6.57
2019-04-11T11:42:26.169Z,9.20
2019-04-11T11:45:04.139Z,10.53
2019-04-11T11:48:12.821Z,5.17
2019-04-11T11:50:39.216Z,6.07
2019-04-11T11:53:25.802Z,9.00
2019-04-11T11:55:55.715Z,7.97
2019-04-11T11:58:51.482Z,5.07
2019-04-11T12:01:17.791Z,7.83
2019-04-11T12:04:04.969Z,5.07
2019-04-11T12:06:35.760Z,4.70
2019-04-11T12:09:26.583Z,10.63
2019-04-11T12:12:02.402Z,10.03
2019-04-11T12:14:59.330Z,6.83
2019-04-11T12:17:49.058Z,6.23
2019-04-11T12:20:27.007Z,8.57
2019-04-11T12:22:59.516Z,7.80
2019-04-11T12:25:34.563Z,5.13
2019-04-11T12:28:23.899Z,8.63
2019-04-11T12:31:01.330Z,7.43
2019-04-11T12:33:52.110Z,5.90
2019-04-11T12:36:37.015Z,7.57
2019-04-11T12:39:36.274Z,8.70
2019-04-11T12:42:25.599Z,6.20
2019-04-11T12:45:14.473Z,8.77
2019-04-11T12:47:48.358Z,9.63
2019-04-11T12:50:36.830Z,10.23
2019-04-11T12:53:09.701Z,5.40
2019-04-11T12:55:57.733Z,6.90
2019-04-11T12:58:46.019Z,6.27
2019-04-11T13:01:35.778Z,6.47
2019-04-11T13:04:23.783Z,10.47
2019-04-11T13:07:25.897Z,7.77
2019-04-11T13:09:59.472Z,6.90
2019-04-11T13:12:47.880Z,7.57
2019-04-11T13:15:25.060Z,8.03
2019-04-11T13:18:20.920Z,10.80
2019-04-11T13:21:19.926Z,7.37
2019-04-11T13:24:09.633Z,6.57
2019-04-11T13:26:58.422Z,6.97
2019-04-11T13:30:02.902Z,6.90
2019-04-11T13:32:44.788Z,5.50
2019-04-11T13:35:33.156Z,6.53
2019-04-11T13:38:17.345Z,7.50
2019-04-11T13:41:29.028Z,11.70
2019-04-11T13:44:11.533Z,13.73
2019-04-11T13:47:03.876Z,5.70
2019-04-11T13:49:55.487Z,7.23
2019-04-11T13:52:45.048Z,6.87
2019-04-11T13:55:42.194Z,7.50
2019-04-11T13:58:34.649Z,6.13
2019-04-11T14:01:13.502Z,6.30
2019-04-11T14:04:08.638Z,5.17
2019-04-11T14:06:39.163Z,9.50
2019-04-11T14:09:37.704Z,8.10
2019-04-11T14:12:13.037Z,7.17
2019-04-11T14:14:55.876Z,10.93
2019-04-11T14:17:44.031Z,6.93
2019-04-11T14:20:29.137Z,7.57
2019-04-11T14:23:14.681Z,5.63
2019-04-11T14:26:11.397Z,6.10
2019-04-11T14:28:47.950Z,5.77
2019-04-11T14:31:50.899Z,8.03
2019-04-11T14:34:40.337Z,8.90
2019-04-11T14:37:38.170Z,9.93
2019-04-11T14:40:29.558Z,9.17
2019-04-11T14:43:25.759Z,6.50
2019-04-11T14:46:24.477Z,5.10
2019-04-11T14:49:12.806Z,17.30
2019-04-11T14:52:01.373Z,15.53
2019-04-11T14:54:41.206Z,12.13
2019-04-11T14:57:22.742Z,23.70
2019-04-11T15:00:05.916Z,9.87
2019-04-11T15:03:03.269Z,6.00
2019-04-11T15:05:59.104Z,8.23
2019-04-11T15:09:02.361Z,7.47
2019-04-11T15:11:52.447Z,7.63
2019-04-11T15:14:51.827Z,8.37
2019-04-11T15:17:26.371Z,7.77
2019-04-11T15:20:16.050Z,8.33
2019-04-11T15:22:49.231Z,5.20
2019-04-11T15:25:37.860Z,8.73
2019-04-11T15:28:28.378Z,7.13
2019-04-11T15:31:03.173Z,7.27
2019-04-11T15:33:46.881Z,7.97
2019-04-11T15:36:19.135Z,6.27
2019-04-11T15:39:13.963Z,14.90
2019-04-11T15:41:44.933Z,8.87
2019-04-11T15:44:33.573Z,5.47
2019-04-11T15:47:05.753Z,9.20
2019-04-11T15:49:55.232Z,7.00
2019-04-11T15:52:26.293Z,8.33
2019-04-11T15:55:18.861Z,10.37
2019-04-11T15:57:55.761Z,9.13
2019-04-11T16:00:45.921Z,10.67
2019-04-11T16:03:19.750Z,7.43
2019-04-11T16:06:24.873Z,8.43
2019-04-11T16:08:58.305Z,14.03
2019-04-11T16:11:53.558Z,14.23
2019-04-11T16:14:43.172Z,13.03
2019-04-11T16:17:35.716Z,15.97
2019-04-11T16:20:17.839Z,10.90
2019-04-11T16:23:12.294Z,12.67
2019-04-11T16:25:46.160Z,13.33
2019-04-11T16:28:35.763Z,8.67
2019-04-11T16:31:09.660Z,9.50
2019-04-11T16:33:57.739Z,13.00
2019-04-11T16:36:47.414Z,9.27
2019-04-11T16:39:50.109Z,11.80
2019-04-11T16:42:27.489Z,12.00
2019-04-11T16:45:25.070Z,13.43
2019-04-11T16:48:03.232Z,12.17
2019-04-11T16:50:34.005Z,10.07
2019-04-11T16:53:04.840Z,9.83
2019-04-11T16:55:36.758Z,11.37
2019-04-11T16:58:07.612Z,11.23
2019-04-11T17:00:38.726Z,13.07
2019-04-11T17:03:09.878Z,8.57
2019-04-11T17:05:42.165Z,14.33
2019-04-11T17:08:30.647Z,15.53
2019-04-11T17:11:09.986Z,15.73
2019-04-11T17:13:40.469Z,16.37
2019-04-11T17:16:13.135Z,8.93
2019-04-11T17:18:44.339Z,7.80
2019-04-11T17:21:14.763Z,8.80
2019-04-11T17:23:47.244Z,8.53
2019-04-11T17:26:18.451Z,12.10
2019-04-11T17:28:49.385Z,10.73
2019-04-11T17:31:20.149Z,9.70
2019-04-11T17:33:51.027Z,14.57
2019-04-11T17:36:21.787Z,10.73
2019-04-11T17:38:52.865Z,15.60
2019-04-11T17:41:23.826Z,10.23
2019-04-11T17:43:54.765Z,15.20
2019-04-11T17:46:27.062Z,16.03
2019-04-11T17:48:58.632Z,16.97
2019-04-11T17:51:29.305Z,16.20
2019-04-11T17:54:01.482Z,17.77
2019-04-11T17:56:32.294Z,15.23
2019-04-11T17:59:02.960Z,23.17
2019-04-11T18:01:37.820Z,22.57
2019-04-11T18:04:08.783Z,28.50
2019-04-11T18:06:39.163Z,29.27
2019-04-11T18:09:12.705Z,21.33
2019-04-11T18:11:43.364Z,18.90
2019-04-11T18:14:13.924Z,30.83
2019-04-11T18:16:44.976Z,23.63
2019-04-11T18:19:15.630Z,22.83
2019-04-11T18:21:46.748Z,28.87
2019-04-11T18:24:19.684Z,27.07
2019-04-11T18:26:51.754Z,23.60
2019-04-11T18:29:23.012Z,22.57
2019-04-11T18:31:54.296Z,20.03
2019-04-11T18:34:24.992Z,31.33
2019-04-11T18:36:55.696Z,33.80
2019-04-11T18:39:26.690Z,25.17
2019-04-11T18:41:57.704Z,30.93
2019-04-11T18:44:28.576Z,34.83
2019-04-11T18:46:59.792Z,21.13
2019-04-11T18:49:30.488Z,24.27
2019-04-11T18:52:01.498Z,21.50
2019-04-11T18:54:33.178Z,24.73
2019-04-11T18:57:03.737Z,28.60
2019-04-11T18:59:34.586Z,24.57
2019-04-11T19:02:05.317Z,23.23
2019-04-11T19:04:35.942Z,25.73
2019-04-11T19:07:07.042Z,28.80
2019-04-11T19:09:37.945Z,25.10
2019-04-11T19:12:09.402Z,25.07
2019-04-11T19:14:40.269Z,29.87
2019-04-11T19:17:11.045Z,30.10
2019-04-11T19:19:42.247Z,34.00
2019-04-11T19:22:12.979Z,33.07
2019-04-11T19:24:43.666Z,32.70
2019-04-11T19:27:16.547Z,28.20
2019-04-11T19:29:48.517Z,24.80
2019-04-11T19:32:19.611Z,27.57
2019-04-11T19:34:50.485Z,30.47
2019-04-11T19:37:21.475Z,23.87
2019-04-11T19:39:52.023Z,25.13
2019-04-11T19:42:23.889Z,28.47
2019-04-11T19:44:54.762Z,24.57
2019-04-11T19:47:25.496Z,30.60
2019-04-11T19:49:58.584Z,23.30
2019-04-11T19:52:31.856Z,24.47
2019-04-11T19:55:11.768Z,25.33
2019-04-11T19:57:42.602Z,22.80
2019-04-11T20:00:14.786Z,22.07
2019-04-11T20:02:45.361Z,24.87
2019-04-11T20:05:16.406Z,29.57
2019-04-11T20:07:58.935Z,30.87
2019-04-11T20:10:30.764Z,38.57
2019-04-11T20:13:02.675Z,31.03
2019-04-11T20:15:37.297Z,29.87
2019-04-11T20:18:05.896Z,36.50
2019-04-11T20:20:37.121Z,36.30
2019-04-11T20:23:10.515Z,35.27
2019-04-11T20:25:40.756Z,36.47
2019-04-11T20:28:11.347Z,35.13
2019-04-11T20:30:42.464Z,38.00
2019-04-11T20:33:12.980Z,34.27
2019-04-11T20:35:44.657Z,37.73
2019-04-11T20:38:16.177Z,37.23
2019-04-11T20:40:47.416Z,36.03
2019-04-11T20:43:18.316Z,32.30
2019-04-11T20:45:48.930Z,38.07
2019-04-11T20:48:19.764Z,35.30
2019-04-11T20:50:50.660Z,31.40
2019-04-11T20:53:21.356Z,32.43
2019-04-11T20:55:53.238Z,31.20
2019-04-11T20:58:27.585Z,27.67
2019-04-11T21:00:56.573Z,31.40
2019-04-11T21:03:29.904Z,33.37
2019-04-11T21:06:01.850Z,32.00
2019-04-11T21:08:33.652Z,29.43
2019-04-11T21:11:05.225Z,27.10
2019-04-11T21:13:38.142Z,29.63
2019-04-11T21:16:08.087Z,29.23
2019-04-11T21:18:38.584Z,27.63
2019-04-11T21:21:09.321Z,28.80
2019-04-11T21:23:39.897Z,29.33
2019-04-11T21:26:10.516Z,28.00
2019-04-11T21:28:41.275Z,25.00
2019-04-11T21:31:11.896Z,23.63
2019-04-11T21:33:43.637Z,25.80
2019-04-11T21:36:14.578Z,21.03
2019-04-11T21:38:45.163Z,24.30
2019-04-11T21:41:16.362Z,25.03
2019-04-11T21:43:47.269Z,24.07
2019-04-11T21:46:18.101Z,25.30
2019-04-11T21:48:48.831Z,26.07
2019-04-11T21:51:19.670Z,20.93
2019-04-11T21:53:51.259Z,25.83
2019-04-11T21:56:21.951Z,23.27
2019-04-11T21:58:52.441Z,23.17
2019-04-11T22:01:24.840Z,23.23
2019-04-11T22:03:57.682Z,24.10
2019-04-11T22:06:28.005Z,24.97
2019-04-11T22:09:00.071Z,27.73
2019-04-11T22:11:30.885Z,23.00
2019-04-11T22:14:01.515Z,24.93
2019-04-11T22:16:32.463Z,27.13
2019-04-11T22:19:02.989Z,26.57
2019-04-11T22:21:36.790Z,29.10
2019-04-11T22:24:07.425Z,24.47
2019-04-11T22:26:38.254Z,25.00
2019-04-11T22:29:09.075Z,22.97
2019-04-11T22:31:39.656Z,25.93
2019-04-11T22:34:15.398Z,24.17
2019-04-11T22:36:45.962Z,22.33
2019-04-11T22:39:16.439Z,27.77
2019-04-11T22:41:47.121Z,24.40
2019-04-11T22:44:17.794Z,21.10
2019-04-11T22:46:48.646Z,22.60
2019-04-11T22:49:19.306Z,22.17
2019-04-11T22:51:50.118Z,22.50
2019-04-11T22:54:20.676Z,23.47
2019-04-11T22:56:51.337Z,20.67
2019-04-11T22:59:22.018Z,20.80
2019-04-11T23:01:54.406Z,20.27
2019-04-11T23:04:25.072Z,18.97
2019-04-11T23:06:55.866Z,19.20
2019-04-11T23:09:26.382Z,26.40
2019-04-11T23:11:57.222Z,25.43
2019-04-11T23:14:27.870Z,22.63
2019-04-11T23:16:58.448Z,23.37
2019-04-11T23:19:29.215Z,24.13
2019-04-11T23:21:59.864Z,19.03
2019-04-11T23:24:30.311Z,22.57
2019-04-11T23:27:01.860Z,23.10
2019-04-11T23:29:32.647Z,18.57
2019-04-11T23:32:03.570Z,19.40
2019-04-11T23:34:34.171Z,22.90
2019-04-11T23:37:04.752Z,18.80
2019-04-11T23:39:36.530Z,19.83
2019-04-11T23:42:07.308Z,22.73
2019-04-11T23:44:37.689Z,19.47
2019-04-11T23:47:08.225Z,19.97
2019-04-11T23:49:39.849Z,23.73
2019-04-11T23:52:10.244Z,25.30
2019-04-11T23:54:40.825Z,23.70
2019-04-11T23:57:11.709Z,29.40
2019-04-11T23:59:42.132Z,20.03
